sensor_id;sensor_type;location;lat;lon;timestamp;temperature;humidity
37002;DHT22;22913;51.910;8.374;2022-11-14T00:01:13;5.00;99.90
37002;DHT22;22913;51.910;8.374;2022-11-14T00:03:58;5.00;99.90
37002;DHT22;22913;51.910;8.374;2022-11-14T00:06:44;5.00;99.90
37002;DHT22;22913;51.910;8.374;2022-11-14T00:09:29;4.90;99.90
37002;DHT22;22913;51.910;8.374;2022-11-14T00:12:16;4.90;99.90
37002;DHT22;22913;51.910;8.374;2022-11-14T00:15:02;4.90;99.90
37002;DHT22;22913;51.910;8.374;2022-11-14T00:17:47;4.90;99.90
37002;DHT22;22913;51.910;8.374;2022-11-14T00:20:33;4.80;99.90
37002;DHT22;22913;51.910;8.374;2022-11-14T00:23:19;4.80;99.90
37002;DHT22;22913;51.910;8.374;2022-11-14T00:26:05;4.70;99.90
37002;DHT22;22913;51.910;8.374;2022-11-14T00:28:53;4.70;99.90
37002;DHT22;22913;51.910;8.374;2022-11-14T00:31:38;4.70;99.90
37002;DHT22;22913;51.910;8.374;2022-11-14T00:34:24;4.70;99.90
37002;DHT22;22913;51.910;8.374;2022-11-14T00:37:09;4.70;99.90
37002;DHT22;22913;51.910;8.374;2022-11-14T00:39:55;4.70;99.90
37002;DHT22;22913;51.910;8.374;2022-11-14T00:42:41;4.70;99.90
37002;DHT22;22913;51.910;8.374;2022-11-14T00:45:29;4.80;99.90
37002;DHT22;22913;51.910;8.374;2022-11-14T00:48:15;4.80;99.90
37002;DHT22;22913;51.910;8.374;2022-11-14T00:51:01;4.80;99.90
37002;DHT22;22913;51.910;8.374;2022-11-14T00:53:46;4.80;99.90
37002;DHT22;22913;51.910;8.374;2022-11-14T00:56:32;4.80;99.90
37002;DHT22;22913;51.910;8.374;2022-11-14T00:59:18;4.80;99.90
37002;DHT22;22913;51.910;8.374;2022-11-14T01:02:05;4.70;99.90
37002;DHT22;22913;51.910;8.374;2022-11-14T01:04:51;4.70;99.90
37002;DHT22;22913;51.910;8.374;2022-11-14T01:07:37;4.70;99.90
37002;DHT22;22913;51.910;8.374;2022-11-14T01:10:23;4.70;99.90
37002;DHT22;22913;51.910;8.374;2022-11-14T01:13:09;4.70;99.90
37002;DHT22;22913;51.910;8.374;2022-11-14T01:15:58;4.70;99.90
37002;DHT22;22913;51.910;8.374;2022-11-14T01:18:45;4.70;99.90
37002;DHT22;22913;51.910;8.374;2022-11-14T01:21:31;4.70;99.90
37002;DHT22;22913;51.910;8.374;2022-11-14T01:24:17;4.60;99.90
37002;DHT22;22913;51.910;8.374;2022-11-14T01:27:03;4.50;99.90
37002;DHT22;22913;51.910;8.374;2022-11-14T01:29:49;4.50;99.90
37002;DHT22;22913;51.910;8.374;2022-11-14T01:32:35;4.50;99.90
37002;DHT22;22913;51.910;8.374;2022-11-14T01:35:22;4.50;99.90
37002;DHT22;22913;51.910;8.374;2022-11-14T01:38:11;4.50;99.90
37002;DHT22;22913;51.910;8.374;2022-11-14T01:40:58;4.50;99.90
37002;DHT22;22913;51.910;8.374;2022-11-14T01:43:43;4.40;99.90
37002;DHT22;22913;51.910;8.374;2022-11-14T01:46:31;4.40;99.90
37002;DHT22;22913;51.910;8.374;2022-11-14T01:49:21;4.40;99.90
37002;DHT22;22913;51.910;8.374;2022-11-14T01:52:11;4.40;99.90
37002;DHT22;22913;51.910;8.374;2022-11-14T01:55:00;4.40;99.90
37002;DHT22;22913;51.910;8.374;2022-11-14T01:57:47;4.30;99.90
37002;DHT22;22913;51.910;8.374;2022-11-14T02:00:33;4.40;99.90
37002;DHT22;22913;51.910;8.374;2022-11-14T02:03:19;4.30;99.90
37002;DHT22;22913;51.910;8.374;2022-11-14T02:06:07;4.30;99.90
37002;DHT22;22913;51.910;8.374;2022-11-14T02:08:55;4.30;99.90
37002;DHT22;22913;51.910;8.374;2022-11-14T02:11:44;4.20;99.90
37002;DHT22;22913;51.910;8.374;2022-11-14T02:14:30;4.20;99.90
37002;DHT22;22913;51.910;8.374;2022-11-14T02:17:18;4.20;99.90
37002;DHT22;22913;51.910;8.374;2022-11-14T02:20:15;4.20;99.90
37002;DHT22;22913;51.910;8.374;2022-11-14T02:23:01;4.10;99.90
37002;DHT22;22913;51.910;8.374;2022-11-14T02:25:46;4.10;99.90
37002;DHT22;22913;51.910;8.374;2022-11-14T02:28:32;4.10;99.90
37002;DHT22;22913;51.910;8.374;2022-11-14T02:31:18;4.00;99.90
37002;DHT22;22913;51.910;8.374;2022-11-14T02:34:04;4.10;99.90
37002;DHT22;22913;51.910;8.374;2022-11-14T02:36:51;4.00;99.90
37002;DHT22;22913;51.910;8.374;2022-11-14T02:39:37;4.00;99.90
37002;DHT22;22913;51.910;8.374;2022-11-14T02:42:24;4.10;99.90
37002;DHT22;22913;51.910;8.374;2022-11-14T02:45:10;4.00;99.90
37002;DHT22;22913;51.910;8.374;2022-11-14T02:47:57;4.10;99.90
37002;DHT22;22913;51.910;8.374;2022-11-14T02:50:43;4.10;99.90
37002;DHT22;22913;51.910;8.374;2022-11-14T02:53:30;4.20;99.90
37002;DHT22;22913;51.910;8.374;2022-11-14T02:56:15;4.10;99.90
37002;DHT22;22913;51.910;8.374;2022-11-14T02:59:01;4.10;99.90
37002;DHT22;22913;51.910;8.374;2022-11-14T03:01:47;4.10;99.90
37002;DHT22;22913;51.910;8.374;2022-11-14T03:04:33;4.20;99.90
37002;DHT22;22913;51.910;8.374;2022-11-14T03:07:18;4.10;99.90
37002;DHT22;22913;51.910;8.374;2022-11-14T03:10:06;4.10;99.90
37002;DHT22;22913;51.910;8.374;2022-11-14T03:12:53;4.10;99.90
37002;DHT22;22913;51.910;8.374;2022-11-14T03:15:39;4.10;99.90
37002;DHT22;22913;51.910;8.374;2022-11-14T03:18:25;4.10;99.90
37002;DHT22;22913;51.910;8.374;2022-11-14T03:21:12;4.10;99.90
37002;DHT22;22913;51.910;8.374;2022-11-14T03:23:58;4.10;99.90
37002;DHT22;22913;51.910;8.374;2022-11-14T03:26:45;4.10;99.90
37002;DHT22;22913;51.910;8.374;2022-11-14T03:29:31;4.20;99.90
37002;DHT22;22913;51.910;8.374;2022-11-14T03:32:17;4.10;99.90
37002;DHT22;22913;51.910;8.374;2022-11-14T03:35:03;4.10;99.90
37002;DHT22;22913;51.910;8.374;2022-11-14T03:37:49;4.10;99.90
37002;DHT22;22913;51.910;8.374;2022-11-14T03:40:38;4.10;99.90
37002;DHT22;22913;51.910;8.374;2022-11-14T03:43:28;4.10;99.90
37002;DHT22;22913;51.910;8.374;2022-11-14T03:46:14;4.10;99.90
37002;DHT22;22913;51.910;8.374;2022-11-14T03:49:00;4.10;99.90
37002;DHT22;22913;51.910;8.374;2022-11-14T03:51:46;4.20;99.90
37002;DHT22;22913;51.910;8.374;2022-11-14T03:54:32;4.20;99.90
37002;DHT22;22913;51.910;8.374;2022-11-14T03:57:17;4.10;99.90
37002;DHT22;22913;51.910;8.374;2022-11-14T04:00:06;4.10;99.90
37002;DHT22;22913;51.910;8.374;2022-11-14T04:02:52;4.20;99.90
37002;DHT22;22913;51.910;8.374;2022-11-14T04:05:38;4.20;99.90
37002;DHT22;22913;51.910;8.374;2022-11-14T04:08:24;4.20;99.90
37002;DHT22;22913;51.910;8.374;2022-11-14T04:11:09;4.30;99.90
37002;DHT22;22913;51.910;8.374;2022-11-14T04:13:55;4.30;99.90
37002;DHT22;22913;51.910;8.374;2022-11-14T04:16:42;4.30;99.90
37002;DHT22;22913;51.910;8.374;2022-11-14T04:19:27;4.30;99.90
37002;DHT22;22913;51.910;8.374;2022-11-14T04:22:13;4.30;99.90
37002;DHT22;22913;51.910;8.374;2022-11-14T04:24:58;4.30;99.90
37002;DHT22;22913;51.910;8.374;2022-11-14T04:27:44;4.30;99.90
37002;DHT22;22913;51.910;8.374;2022-11-14T04:30:30;4.30;99.90
37002;DHT22;22913;51.910;8.374;2022-11-14T04:33:16;4.30;99.90
37002;DHT22;22913;51.910;8.374;2022-11-14T04:36:02;4.30;99.90
37002;DHT22;22913;51.910;8.374;2022-11-14T04:38:48;4.20;99.90
37002;DHT22;22913;51.910;8.374;2022-11-14T04:41:34;4.30;99.90
37002;DHT22;22913;51.910;8.374;2022-11-14T04:44:19;4.20;99.90
37002;DHT22;22913;51.910;8.374;2022-11-14T04:47:05;4.30;99.90
37002;DHT22;22913;51.910;8.374;2022-11-14T04:49:52;4.30;99.90
37002;DHT22;22913;51.910;8.374;2022-11-14T04:52:37;4.30;99.90
37002;DHT22;22913;51.910;8.374;2022-11-14T04:55:23;4.40;99.90
37002;DHT22;22913;51.910;8.374;2022-11-14T04:58:08;4.40;99.90
37002;DHT22;22913;51.910;8.374;2022-11-14T05:00:54;4.50;99.90
37002;DHT22;22913;51.910;8.374;2022-11-14T05:03:41;4.50;99.90
37002;DHT22;22913;51.910;8.374;2022-11-14T05:06:28;4.50;99.90
37002;DHT22;22913;51.910;8.374;2022-11-14T05:09:13;4.60;99.90
37002;DHT22;22913;51.910;8.374;2022-11-14T05:11:59;4.70;99.90
37002;DHT22;22913;51.910;8.374;2022-11-14T05:14:44;4.70;99.90
37002;DHT22;22913;51.910;8.374;2022-11-14T05:17:30;4.70;99.90
37002;DHT22;22913;51.910;8.374;2022-11-14T05:20:15;4.80;99.90
37002;DHT22;22913;51.910;8.374;2022-11-14T05:23:03;4.80;99.90
37002;DHT22;22913;51.910;8.374;2022-11-14T05:25:58;4.80;99.90
37002;DHT22;22913;51.910;8.374;2022-11-14T05:28:43;4.90;99.90
37002;DHT22;22913;51.910;8.374;2022-11-14T05:31:29;4.90;99.90
37002;DHT22;22913;51.910;8.374;2022-11-14T05:34:14;4.90;99.90
37002;DHT22;22913;51.910;8.374;2022-11-14T05:37:00;4.90;99.90
37002;DHT22;22913;51.910;8.374;2022-11-14T05:39:48;4.90;99.90
37002;DHT22;22913;51.910;8.374;2022-11-14T05:42:33;5.00;99.90
37002;DHT22;22913;51.910;8.374;2022-11-14T05:45:19;4.90;99.90
37002;DHT22;22913;51.910;8.374;2022-11-14T05:48:05;4.90;99.90
37002;DHT22;22913;51.910;8.374;2022-11-14T05:50:53;4.90;99.90
37002;DHT22;22913;51.910;8.374;2022-11-14T05:53:39;4.90;99.90
37002;DHT22;22913;51.910;8.374;2022-11-14T05:56:27;5.00;99.90
37002;DHT22;22913;51.910;8.374;2022-11-14T05:59:12;5.00;99.90
37002;DHT22;22913;51.910;8.374;2022-11-14T06:01:57;4.90;99.90
37002;DHT22;22913;51.910;8.374;2022-11-14T06:04:43;4.90;99.90
37002;DHT22;22913;51.910;8.374;2022-11-14T06:07:29;4.80;99.90
37002;DHT22;22913;51.910;8.374;2022-11-14T06:10:15;4.90;99.90
37002;DHT22;22913;51.910;8.374;2022-11-14T06:13:01;4.80;99.90
37002;DHT22;22913;51.910;8.374;2022-11-14T06:15:47;4.90;99.90
37002;DHT22;22913;51.910;8.374;2022-11-14T06:18:33;4.80;99.90
37002;DHT22;22913;51.910;8.374;2022-11-14T06:21:21;4.80;99.90
37002;DHT22;22913;51.910;8.374;2022-11-14T06:24:06;4.80;99.90
37002;DHT22;22913;51.910;8.374;2022-11-14T06:26:52;4.70;99.90
37002;DHT22;22913;51.910;8.374;2022-11-14T06:29:39;4.70;99.90
37002;DHT22;22913;51.910;8.374;2022-11-14T06:32:24;4.70;99.90
37002;DHT22;22913;51.910;8.374;2022-11-14T06:35:10;4.70;99.90
37002;DHT22;22913;51.910;8.374;2022-11-14T06:37:58;4.60;99.90
37002;DHT22;22913;51.910;8.374;2022-11-14T06:40:44;4.60;99.90
37002;DHT22;22913;51.910;8.374;2022-11-14T06:43:31;4.60;99.90
37002;DHT22;22913;51.910;8.374;2022-11-14T06:46:20;4.60;99.90
37002;DHT22;22913;51.910;8.374;2022-11-14T06:49:06;4.50;99.90
37002;DHT22;22913;51.910;8.374;2022-11-14T06:51:52;4.50;99.90
37002;DHT22;22913;51.910;8.374;2022-11-14T06:54:37;4.50;99.90
37002;DHT22;22913;51.910;8.374;2022-11-14T06:57:23;4.40;99.90
37002;DHT22;22913;51.910;8.374;2022-11-14T07:00:09;4.50;99.90
37002;DHT22;22913;51.910;8.374;2022-11-14T07:02:56;4.50;99.90
37002;DHT22;22913;51.910;8.374;2022-11-14T07:05:42;4.50;99.90
37002;DHT22;22913;51.910;8.374;2022-11-14T07:08:28;4.50;99.90
37002;DHT22;22913;51.910;8.374;2022-11-14T07:11:16;4.60;99.90
37002;DHT22;22913;51.910;8.374;2022-11-14T07:14:05;4.60;99.90
37002;DHT22;22913;51.910;8.374;2022-11-14T07:16:51;4.70;99.90
37002;DHT22;22913;51.910;8.374;2022-11-14T07:19:38;4.70;99.90
37002;DHT22;22913;51.910;8.374;2022-11-14T07:22:24;4.70;99.90
37002;DHT22;22913;51.910;8.374;2022-11-14T07:25:10;4.70;99.90
37002;DHT22;22913;51.910;8.374;2022-11-14T07:27:56;4.80;99.90
37002;DHT22;22913;51.910;8.374;2022-11-14T07:30:42;4.80;99.90
37002;DHT22;22913;51.910;8.374;2022-11-14T07:33:29;4.80;99.90
37002;DHT22;22913;51.910;8.374;2022-11-14T07:36:16;4.90;99.90
37002;DHT22;22913;51.910;8.374;2022-11-14T07:39:02;4.90;99.90
37002;DHT22;22913;51.910;8.374;2022-11-14T07:41:48;4.90;99.90
37002;DHT22;22913;51.910;8.374;2022-11-14T07:44:34;5.00;99.90
37002;DHT22;22913;51.910;8.374;2022-11-14T07:47:20;5.00;99.90
37002;DHT22;22913;51.910;8.374;2022-11-14T07:50:06;5.00;99.90
37002;DHT22;22913;51.910;8.374;2022-11-14T07:52:54;5.10;99.90
37002;DHT22;22913;51.910;8.374;2022-11-14T07:55:40;5.10;99.90
37002;DHT22;22913;51.910;8.374;2022-11-14T07:58:25;5.20;99.90
37002;DHT22;22913;51.910;8.374;2022-11-14T08:01:12;5.30;99.90
37002;DHT22;22913;51.910;8.374;2022-11-14T08:03:58;5.30;99.90
37002;DHT22;22913;51.910;8.374;2022-11-14T08:06:44;5.50;99.90
37002;DHT22;22913;51.910;8.374;2022-11-14T08:09:31;5.50;99.90
37002;DHT22;22913;51.910;8.374;2022-11-14T08:12:16;5.60;99.90
37002;DHT22;22913;51.910;8.374;2022-11-14T08:15:03;5.70;99.90
37002;DHT22;22913;51.910;8.374;2022-11-14T08:17:48;5.80;99.90
37002;DHT22;22913;51.910;8.374;2022-11-14T08:20:34;5.80;99.90
37002;DHT22;22913;51.910;8.374;2022-11-14T08:23:19;5.90;99.90
37002;DHT22;22913;51.910;8.374;2022-11-14T08:26:06;6.00;99.90
37002;DHT22;22913;51.910;8.374;2022-11-14T08:28:52;6.00;99.90
37002;DHT22;22913;51.910;8.374;2022-11-14T08:31:38;6.20;99.90
37002;DHT22;22913;51.910;8.374;2022-11-14T08:34:24;6.20;99.90
37002;DHT22;22913;51.910;8.374;2022-11-14T08:37:10;6.30;99.90
37002;DHT22;22913;51.910;8.374;2022-11-14T08:39:55;6.40;99.90
37002;DHT22;22913;51.910;8.374;2022-11-14T08:42:42;6.50;99.90
37002;DHT22;22913;51.910;8.374;2022-11-14T08:45:28;6.60;99.90
37002;DHT22;22913;51.910;8.374;2022-11-14T08:48:14;6.60;99.90
37002;DHT22;22913;51.910;8.374;2022-11-14T08:51:02;6.70;99.90
37002;DHT22;22913;51.910;8.374;2022-11-14T08:53:48;6.80;99.90
37002;DHT22;22913;51.910;8.374;2022-11-14T08:56:35;6.90;99.90
37002;DHT22;22913;51.910;8.374;2022-11-14T08:59:22;6.90;99.90
37002;DHT22;22913;51.910;8.374;2022-11-14T09:02:09;7.00;99.90
37002;DHT22;22913;51.910;8.374;2022-11-14T09:04:55;7.10;99.90
37002;DHT22;22913;51.910;8.374;2022-11-14T09:07:41;7.20;99.90
37002;DHT22;22913;51.910;8.374;2022-11-14T09:10:27;7.20;99.90
37002;DHT22;22913;51.910;8.374;2022-11-14T09:13:12;7.30;99.90
37002;DHT22;22913;51.910;8.374;2022-11-14T09:16:00;7.40;99.90
37002;DHT22;22913;51.910;8.374;2022-11-14T09:18:45;7.50;99.90
37002;DHT22;22913;51.910;8.374;2022-11-14T09:21:31;7.50;99.90
37002;DHT22;22913;51.910;8.374;2022-11-14T09:24:17;7.50;99.90
37002;DHT22;22913;51.910;8.374;2022-11-14T09:27:02;7.60;99.90
37002;DHT22;22913;51.910;8.374;2022-11-14T09:29:48;7.70;99.90
37002;DHT22;22913;51.910;8.374;2022-11-14T09:32:35;7.80;99.90
37002;DHT22;22913;51.910;8.374;2022-11-14T09:35:20;8.00;99.90
37002;DHT22;22913;51.910;8.374;2022-11-14T09:38:09;8.00;99.90
37002;DHT22;22913;51.910;8.374;2022-11-14T09:41:04;8.20;99.90
37002;DHT22;22913;51.910;8.374;2022-11-14T09:44:13;8.30;99.90
37002;DHT22;22913;51.910;8.374;2022-11-14T09:47:07;8.40;99.90
37002;DHT22;22913;51.910;8.374;2022-11-14T09:49:58;8.60;99.90
37002;DHT22;22913;51.910;8.374;2022-11-14T09:52:47;8.80;99.90
37002;DHT22;22913;51.910;8.374;2022-11-14T09:55:34;8.80;99.90
37002;DHT22;22913;51.910;8.374;2022-11-14T09:58:20;9.00;99.90
37002;DHT22;22913;51.910;8.374;2022-11-14T10:01:08;9.20;99.90
37002;DHT22;22913;51.910;8.374;2022-11-14T10:04:02;9.30;99.90
37002;DHT22;22913;51.910;8.374;2022-11-14T10:06:56;9.50;99.90
37002;DHT22;22913;51.910;8.374;2022-11-14T10:09:53;9.70;99.90
37002;DHT22;22913;51.910;8.374;2022-11-14T10:12:59;9.90;99.90
37002;DHT22;22913;51.910;8.374;2022-11-14T10:15:55;10.20;99.90
37002;DHT22;22913;51.910;8.374;2022-11-14T10:18:57;10.40;99.90
37002;DHT22;22913;51.910;8.374;2022-11-14T10:22:04;10.40;99.90
37002;DHT22;22913;51.910;8.374;2022-11-14T10:25:06;10.60;99.90
37002;DHT22;22913;51.910;8.374;2022-11-14T10:28:17;11.00;99.90
37002;DHT22;22913;51.910;8.374;2022-11-14T10:31:10;11.30;99.90
37002;DHT22;22913;51.910;8.374;2022-11-14T10:34:02;11.50;99.90
37002;DHT22;22913;51.910;8.374;2022-11-14T10:36:59;12.00;99.90
37002;DHT22;22913;51.910;8.374;2022-11-14T10:39:50;12.20;99.90
37002;DHT22;22913;51.910;8.374;2022-11-14T10:42:36;12.50;99.90
37002;DHT22;22913;51.910;8.374;2022-11-14T10:45:25;12.90;99.90
37002;DHT22;22913;51.910;8.374;2022-11-14T10:48:15;13.30;99.90
37002;DHT22;22913;51.910;8.374;2022-11-14T10:51:04;13.60;99.90
37002;DHT22;22913;51.910;8.374;2022-11-14T10:53:55;14.20;99.90
37002;DHT22;22913;51.910;8.374;2022-11-14T10:56:45;14.40;99.90
37002;DHT22;22913;51.910;8.374;2022-11-14T10:59:32;14.00;99.90
37002;DHT22;22913;51.910;8.374;2022-11-14T11:02:17;14.40;99.90
37002;DHT22;22913;51.910;8.374;2022-11-14T11:05:12;14.90;99.90
37002;DHT22;22913;51.910;8.374;2022-11-14T11:07:59;15.00;99.90
37002;DHT22;22913;51.910;8.374;2022-11-14T11:11:04;15.40;99.90
37002;DHT22;22913;51.910;8.374;2022-11-14T11:14:15;15.80;99.90
37002;DHT22;22913;51.910;8.374;2022-11-14T11:17:17;16.10;99.90
37002;DHT22;22913;51.910;8.374;2022-11-14T11:20:27;16.70;99.90
37002;DHT22;22913;51.910;8.374;2022-11-14T11:23:19;16.70;99.90
37002;DHT22;22913;51.910;8.374;2022-11-14T11:26:15;17.00;99.90
37002;DHT22;22913;51.910;8.374;2022-11-14T11:29:05;17.20;99.90
37002;DHT22;22913;51.910;8.374;2022-11-14T11:31:53;17.70;99.90
37002;DHT22;22913;51.910;8.374;2022-11-14T11:34:38;18.00;99.90
37002;DHT22;22913;51.910;8.374;2022-11-14T11:37:27;18.00;99.90
37002;DHT22;22913;51.910;8.374;2022-11-14T11:40:18;18.20;99.90
37002;DHT22;22913;51.910;8.374;2022-11-14T11:43:12;18.10;99.90
37002;DHT22;22913;51.910;8.374;2022-11-14T11:46:03;18.20;99.90
37002;DHT22;22913;51.910;8.374;2022-11-14T11:48:52;17.80;99.90
37002;DHT22;22913;51.910;8.374;2022-11-14T11:51:41;17.80;99.90
37002;DHT22;22913;51.910;8.374;2022-11-14T11:54:32;18.30;99.90
37002;DHT22;22913;51.910;8.374;2022-11-14T11:57:28;18.60;99.90
37002;DHT22;22913;51.910;8.374;2022-11-14T12:00:18;18.90;99.90
37002;DHT22;22913;51.910;8.374;2022-11-14T12:03:10;19.40;99.90
37002;DHT22;22913;51.910;8.374;2022-11-14T12:06:06;19.90;99.90
37002;DHT22;22913;51.910;8.374;2022-11-14T12:09:05;20.00;99.90
37002;DHT22;22913;51.910;8.374;2022-11-14T12:12:00;20.40;99.90
37002;DHT22;22913;51.910;8.374;2022-11-14T12:14:54;21.20;99.90
37002;DHT22;22913;51.910;8.374;2022-11-14T12:18:16;21.60;99.90
37002;DHT22;22913;51.910;8.374;2022-11-14T12:21:15;21.80;99.90
37002;DHT22;22913;51.910;8.374;2022-11-14T12:24:19;22.00;99.90
37002;DHT22;22913;51.910;8.374;2022-11-14T12:27:18;22.10;99.90
37002;DHT22;22913;51.910;8.374;2022-11-14T12:30:11;22.20;99.90
37002;DHT22;22913;51.910;8.374;2022-11-14T12:33:01;22.40;99.90
37002;DHT22;22913;51.910;8.374;2022-11-14T12:35:51;22.60;99.90
37002;DHT22;22913;51.910;8.374;2022-11-14T12:38:42;21.70;99.90
37002;DHT22;22913;51.910;8.374;2022-11-14T12:41:31;22.00;99.90
37002;DHT22;22913;51.910;8.374;2022-11-14T12:44:31;21.20;99.90
37002;DHT22;22913;51.910;8.374;2022-11-14T12:47:19;20.90;99.90
37002;DHT22;22913;51.910;8.374;2022-11-14T12:50:28;21.40;99.90
37002;DHT22;22913;51.910;8.374;2022-11-14T12:53:37;21.70;99.90
37002;DHT22;22913;51.910;8.374;2022-11-14T12:56:48;22.10;99.90
37002;DHT22;22913;51.910;8.374;2022-11-14T12:59:48;21.40;99.90
37002;DHT22;22913;51.910;8.374;2022-11-14T13:06:18;20.00;99.90
37002;DHT22;22913;51.910;8.374;2022-11-14T13:09:30;20.70;99.90
37002;DHT22;22913;51.910;8.374;2022-11-14T13:12:29;21.00;99.90
37002;DHT22;22913;51.910;8.374;2022-11-14T13:15:35;21.50;99.90
37002;DHT22;22913;51.910;8.374;2022-11-14T13:18:51;21.30;99.90
37002;DHT22;22913;51.910;8.374;2022-11-14T13:22:32;21.40;99.90
37002;DHT22;22913;51.910;8.374;2022-11-14T13:25:23;22.00;99.90
37002;DHT22;22913;51.910;8.374;2022-11-14T13:28:43;22.10;99.90
37002;DHT22;22913;51.910;8.374;2022-11-14T13:31:48;21.60;99.90
37002;DHT22;22913;51.910;8.374;2022-11-14T13:34:41;21.00;99.90
37002;DHT22;22913;51.910;8.374;2022-11-14T13:37:41;21.00;99.90
37002;DHT22;22913;51.910;8.374;2022-11-14T13:40:35;21.30;99.90
37002;DHT22;22913;51.910;8.374;2022-11-14T13:43:25;21.50;99.90
37002;DHT22;22913;51.910;8.374;2022-11-14T13:46:23;21.10;99.90
37002;DHT22;22913;51.910;8.374;2022-11-14T13:49:28;20.90;99.90
37002;DHT22;22913;51.910;8.374;2022-11-14T13:52:17;21.20;99.90
37002;DHT22;22913;51.910;8.374;2022-11-14T13:55:04;20.50;99.90
37002;DHT22;22913;51.910;8.374;2022-11-14T13:58:02;20.50;99.90
37002;DHT22;22913;51.910;8.374;2022-11-14T14:01:06;20.40;99.90
37002;DHT22;22913;51.910;8.374;2022-11-14T14:04:07;20.70;99.90
37002;DHT22;22913;51.910;8.374;2022-11-14T14:07:06;21.20;99.90
37002;DHT22;22913;51.910;8.374;2022-11-14T14:09:59;20.20;99.90
37002;DHT22;22913;51.910;8.374;2022-11-14T14:13:01;19.50;99.90
37002;DHT22;22913;51.910;8.374;2022-11-14T14:15:57;19.70;99.90
37002;DHT22;22913;51.910;8.374;2022-11-14T14:18:53;19.40;99.90
37002;DHT22;22913;51.910;8.374;2022-11-14T14:21:46;19.40;99.90
37002;DHT22;22913;51.910;8.374;2022-11-14T14:24:48;19.20;99.90
37002;DHT22;22913;51.910;8.374;2022-11-14T14:27:41;18.60;99.90
37002;DHT22;22913;51.910;8.374;2022-11-14T14:30:31;19.20;99.90
37002;DHT22;22913;51.910;8.374;2022-11-14T14:33:18;19.00;99.90
37002;DHT22;22913;51.910;8.374;2022-11-14T14:36:04;18.10;99.90
37002;DHT22;22913;51.910;8.374;2022-11-14T14:38:51;17.70;99.90
37002;DHT22;22913;51.910;8.374;2022-11-14T14:41:51;17.40;99.90
37002;DHT22;22913;51.910;8.374;2022-11-14T14:44:38;16.80;99.90
37002;DHT22;22913;51.910;8.374;2022-11-14T14:47:33;16.70;99.90
37002;DHT22;22913;51.910;8.374;2022-11-14T14:50:21;16.80;99.90
37002;DHT22;22913;51.910;8.374;2022-11-14T14:53:21;16.50;99.90
37002;DHT22;22913;51.910;8.374;2022-11-14T14:56:17;16.50;99.90
37002;DHT22;22913;51.910;8.374;2022-11-14T14:59:15;16.20;99.90
37002;DHT22;22913;51.910;8.374;2022-11-14T15:02:01;15.90;99.90
37002;DHT22;22913;51.910;8.374;2022-11-14T15:04:48;15.50;99.90
37002;DHT22;22913;51.910;8.374;2022-11-14T15:07:34;14.80;99.90
37002;DHT22;22913;51.910;8.374;2022-11-14T15:10:24;14.50;99.90
37002;DHT22;22913;51.910;8.374;2022-11-14T15:13:14;14.30;99.90
37002;DHT22;22913;51.910;8.374;2022-11-14T15:16:03;14.10;99.90
37002;DHT22;22913;51.910;8.374;2022-11-14T15:18:50;13.80;99.90
37002;DHT22;22913;51.910;8.374;2022-11-14T15:21:37;13.50;99.90
37002;DHT22;22913;51.910;8.374;2022-11-14T15:24:23;13.20;99.90
37002;DHT22;22913;51.910;8.374;2022-11-14T15:27:11;13.10;99.90
37002;DHT22;22913;51.910;8.374;2022-11-14T15:30:01;12.90;99.90
37002;DHT22;22913;51.910;8.374;2022-11-14T15:32:48;12.70;99.90
37002;DHT22;22913;51.910;8.374;2022-11-14T15:35:36;12.60;99.90
37002;DHT22;22913;51.910;8.374;2022-11-14T15:38:23;12.60;99.90
37002;DHT22;22913;51.910;8.374;2022-11-14T15:41:19;12.40;99.90
37002;DHT22;22913;51.910;8.374;2022-11-14T15:44:26;12.10;99.90
37002;DHT22;22913;51.910;8.374;2022-11-14T15:47:18;12.00;99.90
37002;DHT22;22913;51.910;8.374;2022-11-14T15:50:20;11.80;99.90
37002;DHT22;22913;51.910;8.374;2022-11-14T15:53:17;11.80;99.90
37002;DHT22;22913;51.910;8.374;2022-11-14T15:56:10;11.70;99.90
37002;DHT22;22913;51.910;8.374;2022-11-14T15:58:55;11.70;99.90
37002;DHT22;22913;51.910;8.374;2022-11-14T16:01:42;11.60;99.90
37002;DHT22;22913;51.910;8.374;2022-11-14T16:04:31;11.60;99.90
37002;DHT22;22913;51.910;8.374;2022-11-14T16:07:17;11.60;99.90
37002;DHT22;22913;51.910;8.374;2022-11-14T16:10:08;11.60;99.90
37002;DHT22;22913;51.910;8.374;2022-11-14T16:12:58;11.60;99.90
37002;DHT22;22913;51.910;8.374;2022-11-14T16:15:44;11.50;99.90
37002;DHT22;22913;51.910;8.374;2022-11-14T16:18:29;11.40;99.90
37002;DHT22;22913;51.910;8.374;2022-11-14T16:21:16;11.40;99.90
37002;DHT22;22913;51.910;8.374;2022-11-14T16:24:03;11.30;99.90
37002;DHT22;22913;51.910;8.374;2022-11-14T16:26:48;11.30;99.90
37002;DHT22;22913;51.910;8.374;2022-11-14T16:29:36;11.20;99.90
37002;DHT22;22913;51.910;8.374;2022-11-14T16:32:21;11.10;99.90
37002;DHT22;22913;51.910;8.374;2022-11-14T16:35:11;11.10;99.90
37002;DHT22;22913;51.910;8.374;2022-11-14T16:37:57;11.10;99.90
37002;DHT22;22913;51.910;8.374;2022-11-14T16:40:43;11.10;99.90
37002;DHT22;22913;51.910;8.374;2022-11-14T16:43:29;11.10;99.90
37002;DHT22;22913;51.910;8.374;2022-11-14T16:46:16;11.10;99.90
37002;DHT22;22913;51.910;8.374;2022-11-14T16:49:01;11.10;99.90
37002;DHT22;22913;51.910;8.374;2022-11-14T16:51:47;11.10;99.90
37002;DHT22;22913;51.910;8.374;2022-11-14T16:54:33;11.10;99.90
37002;DHT22;22913;51.910;8.374;2022-11-14T16:57:19;11.10;99.90
37002;DHT22;22913;51.910;8.374;2022-11-14T17:00:06;11.00;99.90
37002;DHT22;22913;51.910;8.374;2022-11-14T17:02:54;11.00;99.90
37002;DHT22;22913;51.910;8.374;2022-11-14T17:05:41;11.00;99.90
37002;DHT22;22913;51.910;8.374;2022-11-14T17:08:27;11.00;99.90
37002;DHT22;22913;51.910;8.374;2022-11-14T17:11:12;11.00;99.90
37002;DHT22;22913;51.910;8.374;2022-11-14T17:13:58;11.10;99.90
37002;DHT22;22913;51.910;8.374;2022-11-14T17:16:45;11.10;99.90
37002;DHT22;22913;51.910;8.374;2022-11-14T17:19:32;11.00;99.90
37002;DHT22;22913;51.910;8.374;2022-11-14T17:22:17;10.90;99.90
37002;DHT22;22913;51.910;8.374;2022-11-14T17:25:04;10.90;99.90
37002;DHT22;22913;51.910;8.374;2022-11-14T17:27:50;10.80;99.90
37002;DHT22;22913;51.910;8.374;2022-11-14T17:30:39;10.80;99.90
37002;DHT22;22913;51.910;8.374;2022-11-14T17:33:25;10.80;99.90
37002;DHT22;22913;51.910;8.374;2022-11-14T17:36:11;10.90;99.90
37002;DHT22;22913;51.910;8.374;2022-11-14T17:38:57;10.80;99.90
37002;DHT22;22913;51.910;8.374;2022-11-14T17:41:43;10.80;99.90
37002;DHT22;22913;51.910;8.374;2022-11-14T17:44:28;10.70;99.90
37002;DHT22;22913;51.910;8.374;2022-11-14T17:47:14;10.70;99.90
37002;DHT22;22913;51.910;8.374;2022-11-14T17:50:00;10.70;99.90
37002;DHT22;22913;51.910;8.374;2022-11-14T17:52:47;10.60;99.90
37002;DHT22;22913;51.910;8.374;2022-11-14T17:55:32;10.60;99.90
37002;DHT22;22913;51.910;8.374;2022-11-14T17:58:18;10.50;99.90
37002;DHT22;22913;51.910;8.374;2022-11-14T18:01:08;10.50;99.90
37002;DHT22;22913;51.910;8.374;2022-11-14T18:03:55;10.50;99.90